TimeMDT,TemperatureF,Dew PointF,Humidity,Sea Level PressureIn,VisibilityMPH,Wind Direction,Wind SpeedMPH,Gust SpeedMPH,PrecipitationIn,Events,Conditions,WindDirDegrees,DateUTC
12:53 AM,57.9,43.0,58,30.09,10.0,Calm,Calm,-,N/A,,Clear,0,2013-08-31 06:53:00
1:53 AM,57.9,45.0,62,30.11,10.0,Calm,Calm,-,N/A,,Clear,0,2013-08-31 07:53:00
2:53 AM,54.0,45.0,72,30.12,10.0,Calm,Calm,-,N/A,,Clear,0,2013-08-31 08:53:00
3:53 AM,50.0,45.0,83,30.12,10.0,Calm,Calm,-,N/A,,Clear,0,2013-08-31 09:53:00
4:53 AM,48.9,44.1,83,30.12,10.0,NNW,3.5,-,N/A,,Clear,330,2013-08-31 10:53:00
5:53 AM,50.0,43.0,77,30.12,10.0,SSE,3.5,-,N/A,,Clear,150,2013-08-31 11:53:00
6:53 AM,48.9,44.1,83,30.14,10.0,Calm,Calm,-,N/A,,Clear,0,2013-08-31 12:53:00
7:53 AM,48.9,44.1,83,30.16,10.0,Calm,Calm,-,N/A,,Clear,0,2013-08-31 13:53:00
8:53 AM,57.9,46.0,65,30.16,10.0,Calm,Calm,-,N/A,,Clear,0,2013-08-31 14:53:00
9:53 AM,61.0,46.9,60,30.15,10.0,Calm,Calm,-,N/A,,Clear,0,2013-08-31 15:53:00
10:53 AM,64.9,46.9,52,30.13,10.0,Calm,Calm,-,N/A,,Clear,0,2013-08-31 16:53:00
11:53 AM,71.1,46.0,41,30.10,10.0,Calm,Calm,-,N/A,,Clear,0,2013-08-31 17:53:00
12:53 PM,75.9,45.0,33,30.08,10.0,Calm,Calm,-,N/A,,Clear,0,2013-08-31 18:53:00
1:53 PM,80.1,45.0,29,30.05,10.0,Calm,Calm,-,N/A,,Clear,0,2013-08-31 19:53:00
2:53 PM,84.0,43.0,24,30.03,10.0,Calm,Calm,-,N/A,,Clear,0,2013-08-31 20:53:00
3:53 PM,84.9,43.0,23,30.00,10.0,Calm,Calm,-,N/A,,Clear,0,2013-08-31 21:53:00
4:53 PM,86.0,43.0,22,29.98,10.0,Variable,5.8,-,N/A,,Clear,0,2013-08-31 22:53:00
5:53 PM,86.0,42.1,21,29.96,10.0,Calm,Calm,-,N/A,,Clear,0,2013-08-31 23:53:00
6:53 PM,84.9,43.0,23,29.96,10.0,Calm,Calm,-,N/A,,Clear,0,2013-09-01 00:53:00
7:53 PM,81.0,43.0,26,29.96,10.0,NNE,11.5,-,N/A,,Clear,20,2013-09-01 01:53:00
8:53 PM,77.0,43.0,30,29.95,10.0,North,10.4,-,N/A,,Clear,10,2013-09-01 02:53:00
9:53 PM,70.0,44.1,39,29.98,10.0,WNW,9.2,-,N/A,,Clear,300,2013-09-01 03:53:00
10:53 PM,66.9,44.1,44,29.98,10.0,NW,3.5,-,N/A,,Clear,310,2013-09-01 04:53:00
11:53 PM,62.1,44.1,52,29.98,10.0,NNW,5.8,-,N/A,,Clear,330,2013-09-01 05:53:00